sensor_id;sensor_type;location;lat;lon;timestamp;pressure;altitude;pressure_sealevel;temperature;humidity
19797;BME280;10058;57.654;12.044;2023-01-29T00:02:10;101128.72;;;4.59;100.00
19797;BME280;10058;57.654;12.044;2023-01-29T00:04:35;101120.69;;;4.56;100.00
19797;BME280;10058;57.654;12.044;2023-01-29T00:07:00;101118.53;;;4.49;100.00
19797;BME280;10058;57.654;12.044;2023-01-29T00:09:26;101111.66;;;4.51;100.00
19797;BME280;10058;57.654;12.044;2023-01-29T00:11:52;101117.88;;;4.53;100.00
19797;BME280;10058;57.654;12.044;2023-01-29T00:14:17;101120.84;;;4.59;100.00
19797;BME280;10058;57.654;12.044;2023-01-29T00:16:43;101122.84;;;4.63;100.00
19797;BME280;10058;57.654;12.044;2023-01-29T00:19:08;101121.03;;;4.62;100.00
19797;BME280;10058;57.654;12.044;2023-01-29T00:21:33;101128.25;;;4.66;100.00
19797;BME280;10058;57.654;12.044;2023-01-29T00:23:59;101128.59;;;4.72;100.00
19797;BME280;10058;57.654;12.044;2023-01-29T00:26:24;101116.09;;;4.83;100.00
19797;BME280;10058;57.654;12.044;2023-01-29T00:28:50;101117.00;;;4.83;100.00
19797;BME280;10058;57.654;12.044;2023-01-29T00:31:17;101119.84;;;4.88;100.00
19797;BME280;10058;57.654;12.044;2023-01-29T00:33:43;101106.84;;;4.89;100.00
19797;BME280;10058;57.654;12.044;2023-01-29T00:36:09;101106.03;;;4.90;100.00
19797;BME280;10058;57.654;12.044;2023-01-29T00:38:34;101098.19;;;4.90;100.00
19797;BME280;10058;57.654;12.044;2023-01-29T00:43:49;101084.09;;;4.88;100.00
19797;BME280;10058;57.654;12.044;2023-01-29T00:46:33;101083.91;;;4.85;100.00
19797;BME280;10058;57.654;12.044;2023-01-29T00:48:58;101084.69;;;4.83;100.00
19797;BME280;10058;57.654;12.044;2023-01-29T00:51:24;101096.19;;;4.86;100.00
19797;BME280;10058;57.654;12.044;2023-01-29T00:53:49;101101.44;;;4.86;100.00
19797;BME280;10058;57.654;12.044;2023-01-29T00:56:14;101092.94;;;4.90;100.00
19797;BME280;10058;57.654;12.044;2023-01-29T00:58:39;101094.28;;;4.99;100.00
19797;BME280;10058;57.654;12.044;2023-01-29T01:01:04;101083.00;;;5.00;100.00
19797;BME280;10058;57.654;12.044;2023-01-29T01:03:30;101079.69;;;5.04;100.00
19797;BME280;10058;57.654;12.044;2023-01-29T01:06:04;101086.44;;;4.99;100.00
19797;BME280;10058;57.654;12.044;2023-01-29T01:08:29;101084.78;;;5.01;100.00
19797;BME280;10058;57.654;12.044;2023-01-29T01:11:13;101085.69;;;5.01;100.00
19797;BME280;10058;57.654;12.044;2023-01-29T01:13:39;101091.84;;;5.02;100.00
19797;BME280;10058;57.654;12.044;2023-01-29T01:16:08;101091.50;;;5.12;100.00
19797;BME280;10058;57.654;12.044;2023-01-29T01:18:33;101082.31;;;5.20;100.00
19797;BME280;10058;57.654;12.044;2023-01-29T01:20:58;101066.94;;;5.26;100.00
19797;BME280;10058;57.654;12.044;2023-01-29T01:23:23;101066.13;;;5.27;100.00
19797;BME280;10058;57.654;12.044;2023-01-29T01:25:49;101078.41;;;5.28;100.00
19797;BME280;10058;57.654;12.044;2023-01-29T01:28:14;101077.59;;;5.29;100.00
19797;BME280;10058;57.654;12.044;2023-01-29T01:30:39;101078.50;;;5.30;100.00
19797;BME280;10058;57.654;12.044;2023-01-29T01:33:04;101069.38;;;5.39;100.00
19797;BME280;10058;57.654;12.044;2023-01-29T01:35:29;101073.81;;;5.40;100.00
19797;BME280;10058;57.654;12.044;2023-01-29T01:37:55;101061.78;;;5.44;100.00
19797;BME280;10058;57.654;12.044;2023-01-29T01:40:20;101062.66;;;5.44;100.00
19797;BME280;10058;57.654;12.044;2023-01-29T01:42:47;101057.69;;;5.49;100.00
19797;BME280;10058;57.654;12.044;2023-01-29T01:45:17;101057.94;;;5.53;100.00
19797;BME280;10058;57.654;12.044;2023-01-29T01:47:44;101071.03;;;5.53;100.00
19797;BME280;10058;57.654;12.044;2023-01-29T01:50:15;101076.19;;;5.52;100.00
19797;BME280;10058;57.654;12.044;2023-01-29T01:52:42;101083.25;;;5.53;100.00
19797;BME280;10058;57.654;12.044;2023-01-29T01:55:09;101071.97;;;5.55;100.00
19797;BME280;10058;57.654;12.044;2023-01-29T01:57:37;101066.28;;;5.46;100.00
19797;BME280;10058;57.654;12.044;2023-01-29T02:00:07;101056.13;;;5.52;100.00
19797;BME280;10058;57.654;12.044;2023-01-29T02:02:38;101041.34;;;5.54;100.00
19797;BME280;10058;57.654;12.044;2023-01-29T02:05:24;101035.44;;;5.58;100.00
19797;BME280;10058;57.654;12.044;2023-01-29T02:08:09;101028.41;;;5.57;100.00
19797;BME280;10058;57.654;12.044;2023-01-29T02:10:53;101018.97;;;5.61;100.00
19797;BME280;10058;57.654;12.044;2023-01-29T02:13:18;101020.44;;;5.56;100.00
19797;BME280;10058;57.654;12.044;2023-01-29T02:15:44;101021.69;;;5.63;100.00
19797;BME280;10058;57.654;12.044;2023-01-29T02:18:14;101018.56;;;5.70;100.00
19797;BME280;10058;57.654;12.044;2023-01-29T02:20:40;101018.56;;;5.70;100.00
19797;BME280;10058;57.654;12.044;2023-01-29T02:23:14;101003.84;;;5.73;100.00
19797;BME280;10058;57.654;12.044;2023-01-29T02:30:42;101004.34;;;5.82;100.00
19797;BME280;10058;57.654;12.044;2023-01-29T02:36:01;101013.75;;;5.79;100.00
19797;BME280;10058;57.654;12.044;2023-01-29T02:40:49;101010.63;;;5.86;100.00
19797;BME280;10058;57.654;12.044;2023-01-29T02:43:30;101005.72;;;5.92;100.00
19797;BME280;10058;57.654;12.044;2023-01-29T02:48:57;100990.41;;;5.83;100.00
19797;BME280;10058;57.654;12.044;2023-01-29T02:51:26;100986.22;;;5.87;100.00
19797;BME280;10058;57.654;12.044;2023-01-29T02:54:18;100988.78;;;6.03;100.00
19797;BME280;10058;57.654;12.044;2023-01-29T02:56:43;100980.38;;;6.10;100.00
19797;BME280;10058;57.654;12.044;2023-01-29T02:59:55;100976.34;;;5.99;100.00
19797;BME280;10058;57.654;12.044;2023-01-29T03:02:11;100977.25;;;6.00;100.00
19797;BME280;10058;57.654;12.044;2023-01-29T03:04:39;100973.31;;;6.09;100.00
19797;BME280;10058;57.654;12.044;2023-01-29T03:07:08;100966.75;;;6.17;100.00
19797;BME280;10058;57.654;12.044;2023-01-29T03:09:42;100952.13;;;6.22;100.00
19797;BME280;10058;57.654;12.044;2023-01-29T03:12:20;100963.00;;;6.12;100.00
19797;BME280;10058;57.654;12.044;2023-01-29T03:14:58;100970.84;;;6.12;100.00
19797;BME280;10058;57.654;12.044;2023-01-29T03:17:42;100958.19;;;6.21;100.00
19797;BME280;10058;57.654;12.044;2023-01-29T03:20:10;100965.91;;;6.18;100.00
19797;BME280;10058;57.654;12.044;2023-01-29T03:22:38;100962.53;;;6.21;100.00
19797;BME280;10058;57.654;12.044;2023-01-29T03:25:05;100970.63;;;6.25;100.00
19797;BME280;10058;57.654;12.044;2023-01-29T03:27:52;100962.81;;;6.27;100.00
19797;BME280;10058;57.654;12.044;2023-01-29T03:30:39;100948.59;;;6.22;100.00
19797;BME280;10058;57.654;12.044;2023-01-29T03:33:25;100935.66;;;6.26;100.00
19797;BME280;10058;57.654;12.044;2023-01-29T03:35:55;100936.41;;;6.24;100.00
19797;BME280;10058;57.654;12.044;2023-01-29T03:38:23;100949.53;;;6.24;100.00
19797;BME280;10058;57.654;12.044;2023-01-29T03:41:07;100939.13;;;6.25;100.00
19797;BME280;10058;57.654;12.044;2023-01-29T03:46:17;100912.56;;;6.37;100.00
19797;BME280;10058;57.654;12.044;2023-01-29T03:48:54;100934.66;;;6.23;100.00
19797;BME280;10058;57.654;12.044;2023-01-29T03:54:11;100911.81;;;6.40;100.00
19797;BME280;10058;57.654;12.044;2023-01-29T04:01:41;100904.47;;;6.33;100.00
19797;BME280;10058;57.654;12.044;2023-01-29T04:04:11;100903.22;;;6.44;100.00
19797;BME280;10058;57.654;12.044;2023-01-29T04:06:39;100907.84;;;6.30;100.00
19797;BME280;10058;57.654;12.044;2023-01-29T04:09:11;100906.59;;;6.22;100.00
19797;BME280;10058;57.654;12.044;2023-01-29T04:11:40;100895.22;;;6.21;100.00
19797;BME280;10058;57.654;12.044;2023-01-29T04:14:07;100894.56;;;6.27;100.00
19797;BME280;10058;57.654;12.044;2023-01-29T04:16:37;100895.63;;;6.31;100.00
19797;BME280;10058;57.654;12.044;2023-01-29T04:19:05;100886.91;;;6.32;100.00
19797;BME280;10058;57.654;12.044;2023-01-29T04:21:30;100882.63;;;6.34;100.00
19797;BME280;10058;57.654;12.044;2023-01-29T04:23:58;100878.63;;;6.22;100.00
19797;BME280;10058;57.654;12.044;2023-01-29T04:26:48;100876.41;;;6.32;100.00
19797;BME280;10058;57.654;12.044;2023-01-29T04:32:01;100833.75;;;5.99;100.00
19797;BME280;10058;57.654;12.044;2023-01-29T04:34:32;100880.97;;;6.16;100.00
19797;BME280;10058;57.654;12.044;2023-01-29T04:37:04;100886.50;;;6.22;100.00
19797;BME280;10058;57.654;12.044;2023-01-29T04:40:00;100871.00;;;6.09;100.00
19797;BME280;10058;57.654;12.044;2023-01-29T04:42:30;100870.13;;;6.28;100.00
19797;BME280;10058;57.654;12.044;2023-01-29T04:47:53;100848.22;;;6.27;100.00
19797;BME280;10058;57.654;12.044;2023-01-29T04:55:59;100842.91;;;6.26;100.00
19797;BME280;10058;57.654;12.044;2023-01-29T05:00:51;100823.91;;;6.32;100.00
19797;BME280;10058;57.654;12.044;2023-01-29T05:03:17;100815.22;;;6.33;100.00
19797;BME280;10058;57.654;12.044;2023-01-29T05:05:44;100824.13;;;6.17;100.00
19797;BME280;10058;57.654;12.044;2023-01-29T05:08:11;100812.72;;;6.16;100.00
19797;BME280;10058;57.654;12.044;2023-01-29T05:10:38;100809.00;;;6.31;100.00
19797;BME280;10058;57.654;12.044;2023-01-29T05:13:04;100810.44;;;6.24;100.00
19797;BME280;10058;57.654;12.044;2023-01-29T05:15:34;100804.28;;;6.23;100.00
19797;BME280;10058;57.654;12.044;2023-01-29T05:18:01;100789.72;;;6.30;100.00
19797;BME280;10058;57.654;12.044;2023-01-29T05:20:26;100770.38;;;6.28;100.00
19797;BME280;10058;57.654;12.044;2023-01-29T05:22:52;100769.63;;;6.31;100.00
19797;BME280;10058;57.654;12.044;2023-01-29T05:25:20;100780.53;;;6.40;100.00
19797;BME280;10058;57.654;12.044;2023-01-29T05:27:45;100777.34;;;6.27;100.00
19797;BME280;10058;57.654;12.044;2023-01-29T05:30:35;100780.25;;;6.34;100.00
19797;BME280;10058;57.654;12.044;2023-01-29T05:33:01;100783.72;;;6.33;100.00
19797;BME280;10058;57.654;12.044;2023-01-29T05:35:27;100777.84;;;6.38;100.00
19797;BME280;10058;57.654;12.044;2023-01-29T05:37:53;100773.59;;;6.42;100.00
19797;BME280;10058;57.654;12.044;2023-01-29T05:40:18;100772.69;;;6.40;100.00
19797;BME280;10058;57.654;12.044;2023-01-29T05:42:43;100782.75;;;6.31;100.00
19797;BME280;10058;57.654;12.044;2023-01-29T05:45:09;100789.09;;;6.36;100.00
19797;BME280;10058;57.654;12.044;2023-01-29T05:47:34;100793.25;;;6.31;100.00
19797;BME280;10058;57.654;12.044;2023-01-29T05:49:59;100784.75;;;6.55;100.00
19797;BME280;10058;57.654;12.044;2023-01-29T05:52:24;100778.59;;;6.36;100.00
19797;BME280;10058;57.654;12.044;2023-01-29T05:54:49;100769.53;;;6.48;100.00
19797;BME280;10058;57.654;12.044;2023-01-29T05:57:15;100771.19;;;6.46;100.00
19797;BME280;10058;57.654;12.044;2023-01-29T05:59:40;100764.97;;;6.44;100.00
19797;BME280;10058;57.654;12.044;2023-01-29T06:02:05;100765.47;;;6.55;100.00
19797;BME280;10058;57.654;12.044;2023-01-29T06:04:30;100744.47;;;6.55;100.00
19797;BME280;10058;57.654;12.044;2023-01-29T06:06:56;100745.84;;;6.47;100.00
19797;BME280;10058;57.654;12.044;2023-01-29T06:09:21;100758.34;;;6.52;100.00
19797;BME280;10058;57.654;12.044;2023-01-29T06:11:46;100748.03;;;6.57;100.00
19797;BME280;10058;57.654;12.044;2023-01-29T06:14:11;100739.44;;;6.61;100.00
19797;BME280;10058;57.654;12.044;2023-01-29T06:16:36;100734.19;;;6.61;100.00
19797;BME280;10058;57.654;12.044;2023-01-29T06:19:02;100736.00;;;6.62;100.00
19797;BME280;10058;57.654;12.044;2023-01-29T06:21:27;100739.34;;;6.58;100.00
19797;BME280;10058;57.654;12.044;2023-01-29T06:23:52;100739.91;;;6.51;100.00
19797;BME280;10058;57.654;12.044;2023-01-29T06:26:17;100758.00;;;6.45;100.00
19797;BME280;10058;57.654;12.044;2023-01-29T06:28:43;100757.16;;;6.46;100.00
19797;BME280;10058;57.654;12.044;2023-01-29T06:31:10;100752.88;;;6.48;100.00
19797;BME280;10058;57.654;12.044;2023-01-29T06:33:35;100754.81;;;6.52;100.00
19797;BME280;10058;57.654;12.044;2023-01-29T06:36:01;100756.34;;;6.47;100.00
19797;BME280;10058;57.654;12.044;2023-01-29T06:38:26;100760.34;;;6.58;100.00
19797;BME280;10058;57.654;12.044;2023-01-29T06:40:52;100764.00;;;6.42;100.00
19797;BME280;10058;57.654;12.044;2023-01-29T06:43:17;100771.72;;;6.58;100.00
19797;BME280;10058;57.654;12.044;2023-01-29T06:45:49;100757.59;;;6.55;100.00
19797;BME280;10058;57.654;12.044;2023-01-29T06:48:15;100758.97;;;6.47;100.00
19797;BME280;10058;57.654;12.044;2023-01-29T06:50:40;100760.22;;;6.55;100.00
19797;BME280;10058;57.654;12.044;2023-01-29T06:53:05;100736.00;;;6.62;100.00
19797;BME280;10058;57.654;12.044;2023-01-29T06:55:30;100722.03;;;6.63;100.00
19797;BME280;10058;57.654;12.044;2023-01-29T06:57:56;100713.31;;;6.64;100.00
19797;BME280;10058;57.654;12.044;2023-01-29T07:00:21;100709.72;;;6.62;100.00
19797;BME280;10058;57.654;12.044;2023-01-29T07:02:49;100703.72;;;6.64;100.00
19797;BME280;10058;57.654;12.044;2023-01-29T07:05:14;100699.22;;;6.62;100.00
19797;BME280;10058;57.654;12.044;2023-01-29T07:07:39;100707.56;;;6.52;100.00
19797;BME280;10058;57.654;12.044;2023-01-29T07:10:04;100697.06;;;6.52;100.00
19797;BME280;10058;57.654;12.044;2023-01-29T07:12:30;100699.88;;;6.56;100.00
19797;BME280;10058;57.654;12.044;2023-01-29T07:14:55;100689.19;;;6.52;100.00
19797;BME280;10058;57.654;12.044;2023-01-29T07:17:20;100693.59;;;6.53;100.00
19797;BME280;10058;57.654;12.044;2023-01-29T07:19:45;100688.72;;;6.62;100.00
19797;BME280;10058;57.654;12.044;2023-01-29T07:22:10;100696.53;;;6.60;100.00
19797;BME280;10058;57.654;12.044;2023-01-29T07:24:36;100691.94;;;6.55;100.00
19797;BME280;10058;57.654;12.044;2023-01-29T07:27:01;100685.13;;;6.60;100.00
19797;BME280;10058;57.654;12.044;2023-01-29T07:29:26;100677.84;;;6.53;100.00
19797;BME280;10058;57.654;12.044;2023-01-29T07:31:51;100673.69;;;6.58;100.00
19797;BME280;10058;57.654;12.044;2023-01-29T07:34:16;100667.84;;;6.65;100.00
19797;BME280;10058;57.654;12.044;2023-01-29T07:36:42;100669.91;;;6.51;100.00
19797;BME280;10058;57.654;12.044;2023-01-29T07:39:07;100652.22;;;6.68;100.00
19797;BME280;10058;57.654;12.044;2023-01-29T07:41:32;100658.75;;;6.57;100.00
19797;BME280;10058;57.654;12.044;2023-01-29T07:43:57;100637.84;;;6.60;100.00
19797;BME280;10058;57.654;12.044;2023-01-29T07:46:22;100648.38;;;6.60;100.00
19797;BME280;10058;57.654;12.044;2023-01-29T07:48:47;100635.22;;;6.60;100.00
19797;BME280;10058;57.654;12.044;2023-01-29T07:51:13;100633.16;;;6.51;100.00
19797;BME280;10058;57.654;12.044;2023-01-29T07:53:38;100637.63;;;6.54;100.00
19797;BME280;10058;57.654;12.044;2023-01-29T07:56:03;100634.66;;;6.67;100.00
19797;BME280;10058;57.654;12.044;2023-01-29T07:58:29;100625.31;;;6.74;100.00
19797;BME280;10058;57.654;12.044;2023-01-29T08:00:54;100637.72;;;6.78;100.00
19797;BME280;10058;57.654;12.044;2023-01-29T08:03:19;100615.06;;;6.59;100.00
19797;BME280;10058;57.654;12.044;2023-01-29T08:05:44;100608.13;;;6.61;100.00
19797;BME280;10058;57.654;12.044;2023-01-29T08:08:10;100604.53;;;6.57;100.00
19797;BME280;10058;57.654;12.044;2023-01-29T08:10:36;100620.56;;;6.65;100.00
19797;BME280;10058;57.654;12.044;2023-01-29T08:13:01;100624.72;;;6.60;100.00
19797;BME280;10058;57.654;12.044;2023-01-29T08:15:27;100627.34;;;6.60;100.00
19797;BME280;10058;57.654;12.044;2023-01-29T08:17:53;100618.66;;;6.61;100.00
19797;BME280;10058;57.654;12.044;2023-01-29T08:20:18;100614.97;;;6.56;100.00
19797;BME280;10058;57.654;12.044;2023-01-29T08:22:44;100606.47;;;6.63;100.00
19797;BME280;10058;57.654;12.044;2023-01-29T08:25:09;100608.13;;;6.61;100.00
19797;BME280;10058;57.654;12.044;2023-01-29T08:27:35;100594.06;;;6.59;100.00
19797;BME280;10058;57.654;12.044;2023-01-29T08:30:00;100593.47;;;6.66;100.00
19797;BME280;10058;57.654;12.044;2023-01-29T08:32:25;100590.59;;;6.60;100.00
19797;BME280;10058;57.654;12.044;2023-01-29T08:34:50;100580.59;;;6.72;100.00
19797;BME280;10058;57.654;12.044;2023-01-29T08:37:16;100569.72;;;6.63;100.00
19797;BME280;10058;57.654;12.044;2023-01-29T08:39:41;100573.69;;;6.74;100.00
19797;BME280;10058;57.654;12.044;2023-01-29T08:42:06;100560.78;;;6.58;100.00
19797;BME280;10058;57.654;12.044;2023-01-29T08:44:32;100564.25;;;6.57;100.00
19797;BME280;10058;57.654;12.044;2023-01-29T08:46:57;100571.28;;;6.58;100.00
19797;BME280;10058;57.654;12.044;2023-01-29T08:49:22;100575.09;;;6.66;100.00
19797;BME280;10058;57.654;12.044;2023-01-29T08:51:47;100571.63;;;6.67;100.00
19797;BME280;10058;57.654;12.044;2023-01-29T08:54:13;100570.09;;;6.72;100.00
19797;BME280;10058;57.654;12.044;2023-01-29T08:56:38;100569.41;;;6.78;100.00
19797;BME280;10058;57.654;12.044;2023-01-29T08:59:03;100560.50;;;6.73;100.00
19797;BME280;10058;57.654;12.044;2023-01-29T09:01:28;100559.47;;;6.69;100.00
19797;BME280;10058;57.654;12.044;2023-01-29T09:03:53;100570.41;;;6.59;100.00
19797;BME280;10058;57.654;12.044;2023-01-29T09:06:19;100563.84;;;6.48;100.00
19797;BME280;10058;57.654;12.044;2023-01-29T09:08:44;100570.31;;;6.56;100.00
19797;BME280;10058;57.654;12.044;2023-01-29T09:11:09;100574.13;;;6.64;100.00
19797;BME280;10058;57.654;12.044;2023-01-29T09:13:35;100581.53;;;6.52;100.00
19797;BME280;10058;57.654;12.044;2023-01-29T09:16:01;100576.53;;;6.58;100.00
19797;BME280;10058;57.654;12.044;2023-01-29T09:18:26;100590.59;;;6.60;100.00
19797;BME280;10058;57.654;12.044;2023-01-29T09:20:52;100586.81;;;6.74;100.00
19797;BME280;10058;57.654;12.044;2023-01-29T09:23:17;100585.59;;;6.66;100.00
19797;BME280;10058;57.654;12.044;2023-01-29T09:25:42;100595.53;;;6.73;100.00
19797;BME280;10058;57.654;12.044;2023-01-29T09:28:08;100596.97;;;6.87;100.00
19797;BME280;10058;57.654;12.044;2023-01-29T09:30:33;100579.63;;;6.70;100.00
19797;BME280;10058;57.654;12.044;2023-01-29T09:33:01;100576.78;;;6.86;100.00
19797;BME280;10058;57.654;12.044;2023-01-29T09:35:26;100583.13;;;6.91;100.00
19797;BME280;10058;57.654;12.044;2023-01-29T09:37:52;100580.44;;;6.90;100.00
19797;BME280;10058;57.654;12.044;2023-01-29T09:40:22;100593.38;;;6.85;100.00
19797;BME280;10058;57.654;12.044;2023-01-29T09:42:49;100590.38;;;6.76;100.00
19797;BME280;10058;57.654;12.044;2023-01-29T09:45:19;100580.38;;;6.88;100.00
19797;BME280;10058;57.654;12.044;2023-01-29T09:47:45;100584.28;;;6.99;100.00
19797;BME280;10058;57.654;12.044;2023-01-29T09:50:16;100577.75;;;6.88;100.00
19797;BME280;10058;57.654;12.044;2023-01-29T09:52:54;100579.53;;;6.89;100.00
19797;BME280;10058;57.654;12.044;2023-01-29T09:55:28;100568.06;;;6.87;100.00
19797;BME280;10058;57.654;12.044;2023-01-29T09:57:57;100567.34;;;6.91;100.00
19797;BME280;10058;57.654;12.044;2023-01-29T10:10:54;100553.13;;;6.86;100.00
19797;BME280;10058;57.654;12.044;2023-01-29T10:13:28;100540.19;;;6.91;100.00
19797;BME280;10058;57.654;12.044;2023-01-29T10:18:44;100528.19;;;6.75;100.00
19797;BME280;10058;57.654;12.044;2023-01-29T10:21:22;100528.84;;;6.70;100.00
19797;BME280;10058;57.654;12.044;2023-01-29T10:26:37;100513.44;;;6.79;100.00
19797;BME280;10058;57.654;12.044;2023-01-29T10:29:05;100519.34;;;6.73;100.00
19797;BME280;10058;57.654;12.044;2023-01-29T10:31:31;100503.69;;;6.76;100.00
19797;BME280;10058;57.654;12.044;2023-01-29T10:34:06;100498.56;;;6.79;100.00
19797;BME280;10058;57.654;12.044;2023-01-29T10:39:00;100483.38;;;6.71;100.00
19797;BME280;10058;57.654;12.044;2023-01-29T10:41:46;100480.91;;;6.53;100.00
19797;BME280;10058;57.654;12.044;2023-01-29T10:47:05;100469.47;;;6.51;100.00
19797;BME280;10058;57.654;12.044;2023-01-29T10:52:14;100466.13;;;6.55;100.00
19797;BME280;10058;57.654;12.044;2023-01-29T10:57:17;100466.13;;;6.55;100.00
19797;BME280;10058;57.654;12.044;2023-01-29T10:59:56;100455.63;;;6.79;100.00
19797;BME280;10058;57.654;12.044;2023-01-29T11:02:24;100450.81;;;6.89;100.00
19797;BME280;10058;57.654;12.044;2023-01-29T11:04:49;100438.72;;;6.94;100.00
19797;BME280;10058;57.654;12.044;2023-01-29T11:07:15;100428.94;;;6.90;100.00
19797;BME280;10058;57.654;12.044;2023-01-29T11:12:13;100398.09;;;6.85;100.00
19797;BME280;10058;57.654;12.044;2023-01-29T11:14:44;100400.13;;;6.93;100.00
19797;BME280;10058;57.654;12.044;2023-01-29T11:17:19;100405.59;;;6.74;100.00
19797;BME280;10058;57.654;12.044;2023-01-29T11:19:45;100397.06;;;6.81;100.00
19797;BME280;10058;57.654;12.044;2023-01-29T11:22:14;100386.56;;;6.81;100.00
19797;BME280;10058;57.654;12.044;2023-01-29T11:24:40;100374.22;;;6.79;100.00
19797;BME280;10058;57.654;12.044;2023-01-29T11:27:20;100364.47;;;6.76;100.00
19797;BME280;10058;57.654;12.044;2023-01-29T11:29:47;100363.34;;;6.68;100.00
19797;BME280;10058;57.654;12.044;2023-01-29T11:35:18;100339.72;;;6.93;100.00
19797;BME280;10058;57.654;12.044;2023-01-29T11:37:44;100345.41;;;7.06;100.00
19797;BME280;10058;57.654;12.044;2023-01-29T11:42:51;100346.13;;;7.02;100.00
19797;BME280;10058;57.654;12.044;2023-01-29T11:45:27;100350.34;;;6.96;100.00
19797;BME280;10058;57.654;12.044;2023-01-29T11:47:56;100340.47;;;6.89;100.00
19797;BME280;10058;57.654;12.044;2023-01-29T11:50:31;100336.84;;;6.86;100.00
19797;BME280;10058;57.654;12.044;2023-01-29T11:52:57;100328.91;;;6.84;100.00
19797;BME280;10058;57.654;12.044;2023-01-29T11:55:29;100330.47;;;6.79;100.00
19797;BME280;10058;57.654;12.044;2023-01-29T11:58:00;100328.78;;;6.81;100.00
19797;BME280;10058;57.654;12.044;2023-01-29T12:00:28;100321.75;;;6.80;100.00
19797;BME280;10058;57.654;12.044;2023-01-29T12:02:55;100321.53;;;6.74;100.00
19797;BME280;10058;57.654;12.044;2023-01-29T12:05:22;100320.13;;;6.60;100.00
19797;BME280;10058;57.654;12.044;2023-01-29T12:07:48;100313.69;;;6.76;100.00
19797;BME280;10058;57.654;12.044;2023-01-29T12:12:52;100312.47;;;6.66;100.00
19797;BME280;10058;57.654;12.044;2023-01-29T12:15:27;100302.66;;;6.60;100.00
19797;BME280;10058;57.654;12.044;2023-01-29T12:17:57;100314.94;;;6.61;100.00
19797;BME280;10058;57.654;12.044;2023-01-29T12:31:13;100272.16;;;6.64;100.00
19797;BME280;10058;57.654;12.044;2023-01-29T12:38:42;100275.41;;;6.57;100.00
19797;BME280;10058;57.654;12.044;2023-01-29T12:41:12;100257.41;;;6.68;100.00
19797;BME280;10058;57.654;12.044;2023-01-29T12:43:46;100252.81;;;6.62;100.00
19797;BME280;10058;57.654;12.044;2023-01-29T12:46:26;100247.78;;;6.68;100.00
19797;BME280;10058;57.654;12.044;2023-01-29T12:48:53;100240.06;;;6.73;100.00
19797;BME280;10058;57.654;12.044;2023-01-29T12:51:21;100238.41;;;6.75;100.00
19797;BME280;10058;57.654;12.044;2023-01-29T12:53:55;100241.91;;;6.75;100.00
19797;BME280;10058;57.654;12.044;2023-01-29T12:56:43;100224.81;;;6.88;100.00
19797;BME280;10058;57.654;12.044;2023-01-29T12:59:30;100233.94;;;6.72;100.00
19797;BME280;10058;57.654;12.044;2023-01-29T13:02:05;100223.47;;;6.74;100.00
19797;BME280;10058;57.654;12.044;2023-01-29T13:04:43;100221.13;;;6.56;100.00
19797;BME280;10058;57.654;12.044;2023-01-29T13:07:16;100215.53;;;6.47;100.00
19797;BME280;10058;57.654;12.044;2023-01-29T13:09:45;100206.19;;;6.55;100.00
19797;BME280;10058;57.654;12.044;2023-01-29T13:12:13;100191.28;;;6.54;100.00
19797;BME280;10058;57.654;12.044;2023-01-29T13:14:44;100198.22;;;6.52;100.00
19797;BME280;10058;57.654;12.044;2023-01-29T13:17:12;100195.38;;;6.46;100.00
19797;BME280;10058;57.654;12.044;2023-01-29T13:19:43;100193.06;;;6.55;100.00
19797;BME280;10058;57.654;12.044;2023-01-29T13:22:24;100193.19;;;6.58;100.00
19797;BME280;10058;57.654;12.044;2023-01-29T13:24:49;100179.09;;;6.56;100.00
19797;BME280;10058;57.654;12.044;2023-01-29T13:27:20;100186.59;;;6.45;100.00
19797;BME280;10058;57.654;12.044;2023-01-29T13:29:45;100188.78;;;6.58;100.00
19797;BME280;10058;57.654;12.044;2023-01-29T13:32:11;100175.66;;;6.57;100.00
19797;BME280;10058;57.654;12.044;2023-01-29T13:34:44;100175.66;;;6.57;100.00
19797;BME280;10058;57.654;12.044;2023-01-29T13:37:18;100170.97;;;6.48;100.00
19797;BME280;10058;57.654;12.044;2023-01-29T13:39:45;100175.41;;;6.51;100.00
19797;BME280;10058;57.654;12.044;2023-01-29T13:42:16;100171.34;;;6.60;100.00
19797;BME280;10058;57.654;12.044;2023-01-29T13:44:46;100177.09;;;6.49;100.00
19797;BME280;10058;57.654;12.044;2023-01-29T13:47:19;100169.50;;;6.56;100.00
19797;BME280;10058;57.654;12.044;2023-01-29T13:49:46;100164.03;;;6.50;100.00
19797;BME280;10058;57.654;12.044;2023-01-29T13:52:23;100153.38;;;6.46;100.00
19797;BME280;10058;57.654;12.044;2023-01-29T13:54:54;100159.56;;;6.48;100.00
19797;BME280;10058;57.654;12.044;2023-01-29T14:00:05;100155.88;;;6.43;100.00
19797;BME280;10058;57.654;12.044;2023-01-29T14:02:34;100146.53;;;6.51;100.00
19797;BME280;10058;57.654;12.044;2023-01-29T14:12:35;100133.69;;;6.33;100.00
19797;BME280;10058;57.654;12.044;2023-01-29T14:17:54;100120.22;;;6.22;100.00
19797;BME280;10058;57.654;12.044;2023-01-29T14:20:22;100117.59;;;6.22;100.00
19797;BME280;10058;57.654;12.044;2023-01-29T14:22:53;100113.47;;;6.31;100.00
19797;BME280;10058;57.654;12.044;2023-01-29T14:25:20;100102.69;;;6.21;100.00
19797;BME280;10058;57.654;12.044;2023-01-29T14:27:48;100095.66;;;6.20;100.00
19797;BME280;10058;57.654;12.044;2023-01-29T14:30:15;100098.22;;;6.19;100.00
19797;BME280;10058;57.654;12.044;2023-01-29T14:32:41;100076.63;;;6.27;100.00
19797;BME280;10058;57.654;12.044;2023-01-29T14:35:17;100067.91;;;6.28;100.00